Pagrindinis puslapis
METAR-TAF:

METAR-TAF

Oro uostai :

Sitiawan, Malaizija

platuma: 04-13N, ilguma: 100-42E, Aukštis: 7 m

Dabartinis oras

Ataskaita buvo paskelbta 1 valandą ir 8 minutes, ne 03:00 UTC
Vėjas 3 kt nuo kintamojo kryptimis
Temperatūra 31°C
Drėgmė 71%
Slėgis 1010 hPa
Matomumas 10 km arba daugiau
Mažai debesys ne aukštis 2200 ft

METAR: WMBA 290300Z VRB03KT 9999 FEW022 31/25 Q1010

Laikas: 12:08 (04:08 UTC)


TAF: trūkstamas

Orai ataskaitas ir orų prognozės (METAR, TAF).

turimą stotys yra geltonos ir raudonos taškus žemėlapyje.

Perkelti pele per norėdami pamatyti stoties vardą.

Tada spustelėkite, norėdami matyti oro stebėjimo ir prognozės.

Norėdami pakeisti žemėlapį: spustelėkite ant žalios mygtukų su juodo kryžiaus žemyn,; žalią mygtuką su brūkšneliu, jei norite nutolinti; arba žalių rodyklių gretimoms žemėlapius.


METAR-TAF: